Time;durP1;ratioP1;P1;durP2;ratioP2;P2;SDS_P1;SDS_P2;PMS_P1;PMS_P2;Temp;Humidity;BMP_temperature;BMP_pressure;BME280_temperature;BME280_humidity;BME280_pressure;Samples;Min_cycle;Max_cycle;Signal;HPM_P1;HPM_P2
2021/05/28 00:00:56;;;;;;;2.25;1.20;;;18.50;62.00;;;;;;6114428;23;20124;-83
2021/05/28 00:03:25;;;;;;;0.93;0.93;;;18.60;61.90;;;;;;6112322;23;20139;-83
2021/05/28 00:05:52;;;;;;;1.67;1.17;;;18.50;62.00;;;;;;6136559;23;20166;-83
2021/05/28 00:08:17;;;;;;;1.70;1.10;;;18.50;62.90;;;;;;6088900;23;20479;-83
2021/05/28 00:10:43;;;;;;;2.55;0.93;;;18.50;62.10;;;;;;6113290;23;20132;-83
2021/05/28 00:13:10;;;;;;;2.03;1.05;;;18.50;61.70;;;;;;6088446;23;20143;-83
2021/05/28 00:15:39;;;;;;;1.65;1.00;;;18.50;62.00;;;;;;6112115;23;20182;-83
2021/05/28 00:18:04;;;;;;;1.80;0.80;;;18.50;62.00;;;;;;6111887;23;20135;-83
2021/05/28 00:20:30;;;;;;;2.10;1.40;;;18.50;62.20;;;;;;6137127;23;20136;-83
2021/05/28 00:22:56;;;;;;;1.88;1.05;;;18.50;62.20;;;;;;6112111;23;20144;-83
2021/05/28 00:25:23;;;;;;;1.77;1.02;;;18.50;62.00;;;;;;6112414;23;20467;-84
2021/05/28 00:27:51;;;;;;;1.20;1.10;;;18.50;62.00;;;;;;6112425;23;20131;-83
2021/05/28 00:30:27;;;;;;;2.22;1.15;;;18.50;62.10;;;;;;6136783;23;20202;-83
2021/05/28 00:32:53;;;;;;;1.15;0.85;;;18.50;62.10;;;;;;6137489;23;20123;-83
2021/05/28 00:35:22;;;;;;;1.23;1.00;;;18.50;62.20;;;;;;6138189;23;20167;-83
2021/05/28 00:37:48;;;;;;;1.23;1.13;;;18.50;62.00;;;;;;6125246;23;20211;-83
2021/05/28 00:40:16;;;;;;;2.33;0.90;;;18.50;62.10;;;;;;6142838;23;20150;-83
2021/05/28 00:42:51;;;;;;;1.52;1.10;;;18.50;62.10;;;;;;6167701;23;20131;-83
2021/05/28 00:45:19;;;;;;;0.80;0.80;;;18.50;62.30;;;;;;6168352;23;20161;-83
2021/05/28 00:47:45;;;;;;;3.72;1.25;;;18.50;62.20;;;;;;6167458;23;20494;-83
2021/05/28 00:50:14;;;;;;;0.98;0.80;;;18.50;62.10;;;;;;6168001;23;20162;-83
2021/05/28 00:52:39;;;;;;;2.10;1.20;;;18.50;62.20;;;;;;6168476;23;20154;-83
2021/05/28 00:55:06;;;;;;;2.13;1.20;;;18.50;62.20;;;;;;6143611;23;20167;-83
2021/05/28 00:57:32;;;;;;;2.45;1.00;;;18.50;62.20;;;;;;6118976;23;20173;-83
2021/05/28 00:59:59;;;;;;;1.98;1.00;;;18.50;62.20;;;;;;6118717;23;20591;-83
2021/05/28 01:02:25;;;;;;;1.95;1.05;;;18.50;62.40;;;;;;6119199;23;20225;-83
2021/05/28 01:04:51;;;;;;;2.67;1.30;;;18.50;62.20;;;;;;6118257;23;20174;-83
2021/05/28 01:07:18;;;;;;;2.42;1.20;;;18.50;62.10;;;;;;6142785;23;20218;-83
2021/05/28 01:09:47;;;;;;;2.20;1.10;;;18.50;62.30;;;;;;6117892;23;20135;-83
2021/05/28 01:12:12;;;;;;;1.88;1.00;;;18.50;62.20;;;;;;6194348;23;20131;-83
2021/05/28 01:14:38;;;;;;;1.55;1.30;;;18.50;62.20;;;;;;6143128;23;20158;-83
2021/05/28 01:17:04;;;;;;;1.27;1.00;;;18.50;62.20;;;;;;6143528;23;20195;-83
2021/05/28 01:19:30;;;;;;;2.15;1.30;;;18.50;62.20;;;;;;6142201;23;20154;-83
2021/05/28 01:22:04;;;;;;;2.15;1.00;;;18.50;62.20;;;;;;6118478;23;20146;-83
2021/05/28 01:24:31;;;;;;;1.00;0.88;;;18.40;62.10;;;;;;6167672;23;20141;-83
2021/05/28 01:27:06;;;;;;;2.33;1.10;;;18.50;63.20;;;;;;6142184;23;20522;-83
2021/05/28 01:29:34;;;;;;;1.42;0.90;;;18.50;62.30;;;;;;6168044;23;20178;-83
2021/05/28 01:32:02;;;;;;;1.50;0.80;;;18.40;62.30;;;;;;6168091;23;20556;-83
2021/05/28 01:34:28;;;;;;;2.45;1.15;;;18.40;62.20;;;;;;6143216;23;20181;-83
2021/05/28 01:36:54;;;;;;;1.77;0.98;;;18.40;62.00;;;;;;6166461;23;20135;-83
2021/05/28 01:39:20;;;;;;;1.10;1.00;;;18.50;62.30;;;;;;6143570;23;20154;-83
2021/05/28 01:41:49;;;;;;;1.45;1.20;;;18.40;62.10;;;;;;6118230;23;20147;-83
2021/05/28 01:44:17;;;;;;;1.65;1.00;;;18.40;62.10;;;;;;6167439;23;20142;-83
2021/05/28 01:46:44;;;;;;;1.20;1.10;;;18.40;62.40;;;;;;6167240;23;20585;-83
2021/05/28 01:49:11;;;;;;;1.05;0.95;;;18.40;62.30;;;;;;6142150;23;20150;-83
2021/05/28 01:51:40;;;;;;;1.30;1.17;;;18.40;62.10;;;;;;6181162;23;20209;-83
2021/05/28 01:54:08;;;;;;;1.38;1.27;;;18.40;61.90;;;;;;6167746;23;20159;-83
2021/05/28 01:56:34;;;;;;;1.80;1.30;;;18.40;62.20;;;;;;6167394;23;20201;-83
2021/05/28 01:59:02;;;;;;;2.05;0.93;;;18.50;62.30;;;;;;6142120;23;20159;-83
2021/05/28 02:01:30;;;;;;;1.00;0.90;;;18.40;62.10;;;;;;6166862;23;20170;-83
2021/05/28 02:04:05;;;;;;;1.35;1.02;;;18.40;62.10;;;;;;6167264;23;20143;-83
2021/05/28 02:06:40;;;;;;;1.25;0.75;;;18.40;62.30;;;;;;6166527;23;20131;-83
2021/05/28 02:09:07;;;;;;;1.40;1.00;;;18.40;62.30;;;;;;6166955;23;20145;-83
2021/05/28 02:11:34;;;;;;;1.80;1.05;;;18.40;62.40;;;;;;6167142;23;20127;-83
2021/05/28 02:14:00;;;;;;;2.17;1.08;;;18.40;63.20;;;;;;6166844;23;20135;-83
2021/05/28 02:16:27;;;;;;;2.38;1.05;;;18.40;62.20;;;;;;6166690;23;20601;-83
2021/05/28 02:18:54;;;;;;;1.83;0.90;;;18.40;62.10;;;;;;6166729;23;20214;-83
2021/05/28 02:21:26;;;;;;;1.30;1.10;;;18.40;62.30;;;;;;6167739;23;20500;-83
2021/05/28 02:23:53;;;;;;;2.28;1.20;;;18.40;62.40;;;;;;6167304;23;20131;-84
2021/05/28 02:26:21;;;;;;;2.20;1.02;;;18.40;62.40;;;;;;6166239;23;20165;-83
2021/05/28 02:28:55;;;;;;;1.17;1.08;;;18.40;62.10;;;;;;6142783;23;20147;-83
2021/05/28 02:31:22;;;;;;;2.15;1.00;;;18.40;62.40;;;;;;6168178;23;20139;-83
2021/05/28 02:33:56;;;;;;;1.17;0.98;;;18.40;62.30;;;;;;6168005;23;20135;-83
2021/05/28 02:36:24;;;;;;;1.67;1.10;;;18.40;62.30;;;;;;6194956;23;20174;-83
2021/05/28 02:38:53;;;;;;;2.17;0.82;;;18.40;62.30;;;;;;6195340;23;20209;-83
2021/05/28 02:41:28;;;;;;;2.38;1.27;;;18.40;62.40;;;;;;6143740;23;20181;-83
2021/05/28 02:43:58;;;;;;;0.95;0.93;;;18.40;62.10;;;;;;6141696;23;20158;-82
2021/05/28 02:46:34;;;;;;;1.17;0.80;;;18.40;62.20;;;;;;6166697;23;20162;-83
2021/05/28 02:49:02;;;;;;;1.63;1.00;;;18.40;63.00;;;;;;6166892;23;20127;-82
2021/05/28 02:51:36;;;;;;;1.27;1.10;;;18.40;62.20;;;;;;6141619;23;20147;-83
2021/05/28 02:54:03;;;;;;;2.88;1.30;;;18.40;62.40;;;;;;6166514;23;20133;-83
2021/05/28 02:56:38;;;;;;;2.85;1.13;;;18.40;62.20;;;;;;6166120;23;20182;-83
2021/05/28 02:59:05;;;;;;;1.73;0.90;;;18.40;62.30;;;;;;6165565;23;20205;-83
2021/05/28 03:01:31;;;;;;;1.23;0.90;;;18.40;62.40;;;;;;6140698;23;20482;-83
2021/05/28 03:03:57;;;;;;;1.30;0.90;;;18.40;62.30;;;;;;6115941;23;20234;-83
2021/05/28 03:06:23;;;;;;;1.10;1.00;;;18.40;62.30;;;;;;6115660;23;20185;-83
2021/05/28 03:08:50;;;;;;;1.50;1.08;;;18.40;62.30;;;;;;6140596;23;20131;-83
2021/05/28 03:11:19;;;;;;;1.42;1.08;;;18.40;62.20;;;;;;6117264;23;20226;-83
2021/05/28 03:13:53;;;;;;;1.25;1.00;;;18.40;62.40;;;;;;6166020;23;20154;-83
2021/05/28 03:16:28;;;;;;;2.28;1.10;;;18.40;62.40;;;;;;6165248;23;20193;-82
2021/05/28 03:18:57;;;;;;;2.42;1.02;;;18.40;62.30;;;;;;6141098;23;20172;-82
2021/05/28 03:21:37;;;;;;;1.60;0.90;;;18.40;62.40;;;;;;6166729;23;20134;-82
2021/05/28 03:24:04;;;;;;;1.85;0.77;;;18.40;62.30;;;;;;6168675;23;20150;-82
2021/05/28 03:26:31;;;;;;;1.25;0.85;;;18.40;62.30;;;;;;6140838;23;20569;-82
2021/05/28 03:29:02;;;;;;;2.22;1.25;;;18.40;62.40;;;;;;6140573;23;20154;-82
2021/05/28 03:31:28;;;;;;;1.10;1.00;;;18.40;62.50;;;;;;6165955;23;20124;-82
2021/05/28 03:34:02;;;;;;;1.20;1.10;;;18.40;62.50;;;;;;6116761;23;20146;-82
2021/05/28 03:36:29;;;;;;;2.35;1.00;;;18.40;62.40;;;;;;6145859;23;20178;-83
2021/05/28 03:38:57;;;;;;;0.93;0.82;;;18.30;62.30;;;;;;6192849;23;20186;-83
2021/05/28 03:41:23;;;;;;;1.27;1.10;;;18.40;62.40;;;;;;6143586;23;20486;-83
2021/05/28 03:43:49;;;;;;;2.08;1.10;;;18.30;62.40;;;;;;6143252;23;20131;-83
2021/05/28 03:46:16;;;;;;;1.10;1.00;;;18.40;62.20;;;;;;6166751;23;20161;-83
2021/05/28 03:48:43;;;;;;;2.10;1.13;;;18.40;62.30;;;;;;6167174;23;20149;-83
2021/05/28 03:51:11;;;;;;;2.15;1.17;;;18.40;62.40;;;;;;6194118;23;20206;-83
2021/05/28 03:53:38;;;;;;;1.48;1.08;;;18.30;62.10;;;;;;6167702;23;20145;-83
2021/05/28 03:56:05;;;;;;;1.92;0.98;;;18.40;62.20;;;;;;6142874;23;20598;-83
2021/05/28 03:58:31;;;;;;;1.35;1.17;;;18.30;62.40;;;;;;6143749;23;20139;-83
2021/05/28 04:00:57;;;;;;;1.30;1.20;;;18.40;62.40;;;;;;6167927;23;20139;-83
2021/05/28 04:03:32;;;;;;;1.13;0.82;;;18.30;62.20;;;;;;6167481;23;20150;-83
2021/05/28 04:05:58;;;;;;;2.03;0.93;;;18.40;62.30;;;;;;6169232;23;20131;-83
2021/05/28 04:08:25;;;;;;;1.67;1.08;;;18.30;62.00;;;;;;6144749;23;20139;-83
2021/05/28 04:10:53;;;;;;;1.23;1.00;;;18.30;62.00;;;;;;6170104;23;20253;-83
2021/05/28 04:13:21;;;;;;;1.90;1.17;;;18.40;62.00;;;;;;6146058;23;20142;-83
2021/05/28 04:15:48;;;;;;;1.20;1.10;;;18.30;61.90;;;;;;6146574;23;20221;-83
2021/05/28 04:18:14;;;;;;;1.58;0.90;;;18.30;61.80;;;;;;6168234;23;20559;-82
2021/05/28 04:20:43;;;;;;;1.13;0.90;;;18.30;61.80;;;;;;6144845;23;20165;-83
2021/05/28 04:23:19;;;;;;;3.75;1.70;;;18.30;61.70;;;;;;6168942;23;20158;-83
2021/05/28 04:25:47;;;;;;;1.35;1.10;;;18.40;61.30;;;;;;6143756;23;20146;-83
2021/05/28 04:28:14;;;;;;;1.10;1.00;;;18.40;61.50;;;;;;6168337;23;20157;-83
2021/05/28 04:30:41;;;;;;;1.42;1.33;;;18.40;61.50;;;;;;6168919;23;20167;-83
2021/05/28 04:33:07;;;;;;;2.13;1.48;;;18.40;61.60;;;;;;6168807;23;20131;-83
2021/05/28 04:35:35;;;;;;;2.42;1.38;;;18.40;61.10;;;;;;6167735;23;20175;-83
2021/05/28 04:38:01;;;;;;;1.20;1.00;;;18.40;61.40;;;;;;6167828;23;20193;-83
2021/05/28 04:40:30;;;;;;;1.30;1.15;;;18.40;61.20;;;;;;6143811;23;20151;-83
2021/05/28 04:42:58;;;;;;;2.00;1.20;;;18.40;61.50;;;;;;6147359;23;20146;-83
2021/05/28 04:45:27;;;;;;;1.30;1.10;;;18.40;61.40;;;;;;6121647;23;20214;-83
2021/05/28 04:47:54;;;;;;;1.67;1.10;;;18.40;61.40;;;;;;6144784;23;20196;-83
2021/05/28 04:50:31;;;;;;;1.20;0.98;;;18.40;61.50;;;;;;6144460;23;20147;-83
2021/05/28 04:53:17;;;;;;;2.15;1.20;;;18.40;62.10;;;;;;6168693;23;20147;-83
2021/05/28 04:55:44;;;;;;;1.73;1.27;;;18.40;61.40;;;;;;6141745;23;20184;-83
2021/05/28 04:58:10;;;;;;;1.15;1.05;;;18.40;60.70;;;;;;6169302;23;20131;-83
2021/05/28 05:00:37;;;;;;;1.52;1.23;;;18.40;61.00;;;;;;6196216;23;20500;-83
2021/05/28 05:03:04;;;;;;;1.17;1.05;;;18.40;61.10;;;;;;6143885;23;20189;-83
2021/05/28 05:05:37;;;;;;;1.75;1.35;;;18.40;61.30;;;;;;6144243;23;20174;-83
2021/05/28 05:08:12;;;;;;;1.45;0.90;;;18.40;61.50;;;;;;6169622;23;20151;-83
2021/05/28 05:10:45;;;;;;;1.52;1.42;;;18.40;61.10;;;;;;6144872;23;20147;-83
2021/05/28 05:13:18;;;;;;;1.98;1.30;;;18.40;60.70;;;;;;6169386;23;20131;-83
2021/05/28 05:15:53;;;;;;;1.10;0.98;;;18.40;61.10;;;;;;6143040;23;20182;-83
2021/05/28 05:18:28;;;;;;;1.30;1.20;;;18.40;61.40;;;;;;6168652;23;20137;-83
2021/05/28 05:21:00;;;;;;;1.33;1.10;;;18.40;61.40;;;;;;6169147;23;20134;-82
2021/05/28 05:23:31;;;;;;;1.20;1.10;;;18.40;60.90;;;;;;6170173;23;20157;-83
2021/05/28 05:25:58;;;;;;;1.92;1.20;;;18.40;61.20;;;;;;6169281;23;20135;-83
2021/05/28 05:28:24;;;;;;;1.45;0.95;;;18.40;60.50;;;;;;6194451;23;20136;-82
2021/05/28 05:30:51;;;;;;;1.65;1.20;;;18.40;60.50;;;;;;6194646;23;20131;-82
2021/05/28 05:33:19;;;;;;;1.40;1.00;;;18.40;61.20;;;;;;6166842;23;20567;-82
2021/05/28 05:35:46;;;;;;;1.25;1.05;;;18.40;61.00;;;;;;6143632;23;20678;-82
2021/05/28 05:38:11;;;;;;;1.20;1.05;;;18.40;61.10;;;;;;6168887;23;20186;-83
2021/05/28 05:40:41;;;;;;;1.23;1.13;;;18.40;61.10;;;;;;6169314;23;20165;-83
2021/05/28 05:43:07;;;;;;;1.83;1.17;;;18.40;60.90;;;;;;6171806;23;20158;-83
2021/05/28 05:45:36;;;;;;;1.83;1.30;;;18.40;60.70;;;;;;6147528;23;20173;-83
2021/05/28 05:48:02;;;;;;;1.40;1.30;;;18.30;60.70;;;;;;6145720;23;20143;-83
2021/05/28 05:50:31;;;;;;;1.52;1.20;;;18.30;60.80;;;;;;6145559;23;20158;-83
2021/05/28 05:52:58;;;;;;;1.30;1.20;;;18.40;60.70;;;;;;6145632;23;20131;-82
2021/05/28 05:55:25;;;;;;;1.10;1.00;;;18.30;60.80;;;;;;6147591;23;20209;-82
2021/05/28 05:57:59;;;;;;;1.30;1.17;;;18.40;61.20;;;;;;6172217;23;20135;-82
2021/05/28 06:00:31;;;;;;;1.40;1.30;;;18.40;60.30;;;;;;6170298;23;20169;-83
2021/05/28 06:02:58;;;;;;;1.77;1.40;;;18.40;60.60;;;;;;6146042;23;20135;-82
2021/05/28 06:05:26;;;;;;;1.92;1.10;;;18.30;60.60;;;;;;6198842;23;20226;-83
2021/05/28 06:08:02;;;;;;;1.48;1.30;;;18.40;61.10;;;;;;6147066;23;20139;-83
2021/05/28 06:10:28;;;;;;;1.20;1.10;;;18.30;60.90;;;;;;6145728;23;20146;-83
2021/05/28 06:13:02;;;;;;;2.58;1.30;;;18.30;61.00;;;;;;6168909;23;20127;-82
2021/05/28 06:15:28;;;;;;;1.95;1.30;;;18.30;60.70;;;;;;6145269;23;20174;-82
2021/05/28 06:17:55;;;;;;;2.17;1.40;;;18.30;60.40;;;;;;6145610;23;20146;-83
2021/05/28 06:20:29;;;;;;;1.10;1.00;;;18.30;60.70;;;;;;6145466;23;20165;-83
2021/05/28 06:23:04;;;;;;;1.83;1.25;;;18.30;60.30;;;;;;6144617;23;20139;-83
2021/05/28 06:25:31;;;;;;;1.25;1.15;;;18.30;60.60;;;;;;6168663;23;20143;-83
2021/05/28 06:27:58;;;;;;;1.45;1.10;;;18.40;60.50;;;;;;6143908;23;20142;-83
2021/05/28 06:30:28;;;;;;;2.72;1.38;;;18.40;60.90;;;;;;6167703;23;20142;-83
2021/05/28 06:32:55;;;;;;;1.60;1.35;;;18.40;60.10;;;;;;6168621;23;20154;-83
2021/05/28 06:35:21;;;;;;;1.33;1.23;;;18.40;60.50;;;;;;6161741;23;20472;-84
2021/05/28 06:37:47;;;;;;;1.65;1.30;;;18.30;60.90;;;;;;6188302;23;20673;-81
2021/05/28 06:40:14;;;;;;;1.67;1.15;;;18.40;60.70;;;;;;6136795;23;20151;-83
2021/05/28 06:42:48;;;;;;;1.30;1.15;;;18.40;60.70;;;;;;6136759;23;20151;-83
2021/05/28 06:45:17;;;;;;;1.45;1.20;;;18.30;60.80;;;;;;6163467;23;20135;-82
2021/05/28 06:47:47;;;;;;;2.20;1.63;;;18.40;60.50;;;;;;6138512;23;20139;-82
2021/05/28 06:50:15;;;;;;;1.27;1.17;;;18.40;59.90;;;;;;6170118;23;20162;-83
2021/05/28 06:52:42;;;;;;;1.35;1.25;;;18.40;60.70;;;;;;6146660;23;20142;-84
2021/05/28 06:55:10;;;;;;;2.08;1.40;;;18.30;60.50;;;;;;6170683;23;20163;-82
2021/05/28 06:57:37;;;;;;;1.40;1.08;;;18.40;60.60;;;;;;6191150;23;20134;-81
2021/05/28 07:00:08;;;;;;;1.30;1.20;;;18.30;60.50;;;;;;6142481;23;20154;-83
2021/05/28 07:02:36;;;;;;;1.45;1.10;;;18.30;60.60;;;;;;6191020;23;20130;-82
2021/05/28 07:05:03;;;;;;;1.92;1.35;;;18.40;60.70;;;;;;6139208;23;20460;-82
2021/05/28 07:07:29;;;;;;;1.30;1.20;;;18.40;60.60;;;;;;6164952;23;20139;-81
2021/05/28 07:09:56;;;;;;;0.98;0.90;;;18.30;60.30;;;;;;6161037;23;20142;-79
2021/05/28 07:12:31;;;;;;;2.03;1.40;;;18.40;60.60;;;;;;6161918;23;20158;-82
2021/05/28 07:14:57;;;;;;;1.60;1.00;;;18.30;60.40;;;;;;6160325;23;20626;-81
2021/05/28 07:17:32;;;;;;;2.53;1.30;;;18.40;60.10;;;;;;6164782;23;20637;-81
2021/05/28 07:19:58;;;;;;;1.92;1.58;;;18.40;60.30;;;;;;6164174;23;20156;-81
2021/05/28 07:22:25;;;;;;;1.48;1.10;;;18.40;60.50;;;;;;6166995;23;20138;-82
2021/05/28 07:24:52;;;;;;;2.38;2.10;;;18.30;60.60;;;;;;6165735;23;20209;-83
2021/05/28 07:27:18;;;;;;;1.45;1.35;;;18.30;59.50;;;;;;6186616;23;20141;-81
2021/05/28 07:29:48;;;;;;;1.67;1.40;;;18.40;60.00;;;;;;6187065;23;20131;-83
2021/05/28 07:32:16;;;;;;;1.45;1.35;;;18.40;60.10;;;;;;6138171;23;20145;-82
2021/05/28 07:34:43;;;;;;;1.65;1.50;;;18.40;60.40;;;;;;6185977;23;20186;-82
2021/05/28 07:37:09;;;;;;;1.80;1.17;;;18.40;61.20;;;;;;6190137;23;20138;-80
2021/05/28 07:39:43;;;;;;;1.65;1.55;;;18.40;60.40;;;;;;6171797;23;20135;-83
2021/05/28 07:42:10;;;;;;;1.70;1.60;;;18.40;59.70;;;;;;6142824;23;20148;-80
2021/05/28 07:44:37;;;;;;;1.88;1.48;;;18.40;59.60;;;;;;6162701;23;20139;-81
2021/05/28 07:47:06;;;;;;;2.63;1.20;;;18.40;60.30;;;;;;6191159;23;20135;-83
2021/05/28 07:49:32;;;;;;;2.97;1.30;;;18.40;60.20;;;;;;6145963;23;20139;-86
2021/05/28 07:51:58;;;;;;;1.23;1.13;;;18.40;60.50;;;;;;6165165;23;20500;-80
2021/05/28 07:54:25;;;;;;;1.35;1.25;;;18.40;60.30;;;;;;6188031;23;20158;-81
2021/05/28 07:56:51;;;;;;;1.40;1.30;;;18.40;59.90;;;;;;6187715;23;20498;-82
2021/05/28 07:59:17;;;;;;;2.03;1.20;;;18.40;60.00;;;;;;6161641;23;20467;-80
2021/05/28 08:01:44;;;;;;;2.58;1.52;;;18.40;60.10;;;;;;6163089;23;20197;-84
2021/05/28 08:04:11;;;;;;;1.55;1.30;;;18.40;59.90;;;;;;6139498;23;20147;-81
2021/05/28 08:06:38;;;;;;;2.75;1.42;;;18.40;59.60;;;;;;6188316;23;20146;-81
2021/05/28 08:09:05;;;;;;;1.30;1.17;;;18.40;59.80;;;;;;6162445;23;20163;-83
2021/05/28 08:11:31;;;;;;;1.50;1.30;;;18.40;60.10;;;;;;6188386;23;20134;-80
2021/05/28 08:13:58;;;;;;;1.40;1.30;;;18.40;60.00;;;;;;6161622;23;20210;-85
2021/05/28 08:16:25;;;;;;;1.40;1.20;;;18.40;59.90;;;;;;6188089;23;20629;-83
2021/05/28 08:18:52;;;;;;;1.30;1.20;;;18.40;60.00;;;;;;6163048;23;20134;-85
2021/05/28 08:21:19;;;;;;;1.20;1.10;;;18.40;60.10;;;;;;6140278;23;20212;-80
2021/05/28 08:23:45;;;;;;;1.75;1.38;;;18.40;59.70;;;;;;6166252;23;20161;-83
2021/05/28 08:26:12;;;;;;;1.58;1.45;;;18.40;59.60;;;;;;6140529;23;20154;-83
2021/05/28 08:28:39;;;;;;;2.75;1.63;;;18.40;59.70;;;;;;6168761;23;20146;-83
2021/05/28 08:31:06;;;;;;;1.75;1.50;;;18.40;59.50;;;;;;6161260;23;20571;-83
2021/05/28 08:33:34;;;;;;;1.70;1.33;;;18.40;59.80;;;;;;6113222;23;20528;-84
2021/05/28 08:36:00;;;;;;;1.90;1.52;;;18.40;59.60;;;;;;6167786;23;20197;-84
2021/05/28 08:38:26;;;;;;;1.65;1.30;;;18.40;59.30;;;;;;6138233;23;20186;-85
2021/05/28 08:40:52;;;;;;;1.08;0.98;;;18.40;60.00;;;;;;6162964;23;20158;-84
2021/05/28 08:43:18;;;;;;;1.58;1.45;;;18.40;60.10;;;;;;6137125;23;20128;-82
2021/05/28 08:45:45;;;;;;;1.67;1.40;;;18.40;60.00;;;;;;6165947;23;20135;-80
2021/05/28 08:48:16;;;;;;;2.05;1.70;;;18.40;59.90;;;;;;6112112;23;20143;-80
2021/05/28 08:50:44;;;;;;;1.63;1.35;;;18.50;59.60;;;;;;6162950;23;20218;-82
2021/05/28 08:53:11;;;;;;;2.08;1.55;;;18.40;59.80;;;;;;6187544;23;20182;-79
2021/05/28 08:55:39;;;;;;;1.75;1.40;;;18.40;59.50;;;;;;6160552;23;20173;-82
2021/05/28 08:58:07;;;;;;;2.30;1.30;;;18.50;59.80;;;;;;6162383;23;20510;-82
2021/05/28 09:00:34;;;;;;;1.85;1.23;;;18.40;59.60;;;;;;6187350;23;20135;-82
2021/05/28 09:03:20;;;;;;;1.60;1.50;;;18.50;59.70;;;;;;6165308;23;20131;-83
2021/05/28 09:05:59;;;;;;;2.13;1.63;;;18.50;59.40;;;;;;6196609;23;20134;-80
2021/05/28 09:08:30;;;;;;;1.60;1.40;;;18.50;58.70;;;;;;6173452;23;20196;-80
2021/05/28 09:11:14;;;;;;;2.42;1.80;;;18.50;59.70;;;;;;6172192;23;20242;-80
2021/05/28 09:14:06;;;;;;;1.42;1.20;;;18.50;59.40;;;;;;6145265;23;20139;-84
2021/05/28 09:16:33;;;;;;;1.55;1.40;;;18.50;59.40;;;;;;6163016;23;20181;-83
2021/05/28 09:19:00;;;;;;;1.67;1.40;;;18.50;59.10;;;;;;6167380;23;20131;-77
2021/05/28 09:21:35;;;;;;;1.90;1.38;;;18.50;59.40;;;;;;6165064;23;20138;-84
2021/05/28 09:24:06;;;;;;;1.38;1.25;;;18.50;59.80;;;;;;6167621;23;20131;-84
2021/05/28 09:26:35;;;;;;;1.35;1.23;;;18.50;59.70;;;;;;6163771;23;20139;-83
2021/05/28 09:29:11;;;;;;;1.90;1.70;;;18.50;59.40;;;;;;6190204;23;20158;-83
2021/05/28 09:31:38;;;;;;;1.45;1.30;;;18.50;59.00;;;;;;6164488;23;20139;-84
2021/05/28 09:34:04;;;;;;;2.50;1.35;;;18.50;59.50;;;;;;6164519;23;20158;-85
2021/05/28 09:36:36;;;;;;;2.25;2.00;;;18.50;59.20;;;;;;6164867;23;20170;-83
2021/05/28 09:39:20;;;;;;;2.03;1.50;;;18.60;59.00;;;;;;6190229;23;20622;-85
2021/05/28 09:41:51;;;;;;;2.65;1.50;;;18.50;59.30;;;;;;6189750;23;20131;-82
2021/05/28 09:44:38;;;;;;;1.60;1.50;;;18.50;59.40;;;;;;6139268;23;20189;-83
2021/05/28 09:47:34;;;;;;;1.80;1.20;;;18.60;59.00;;;;;;6161759;23;20189;-84
2021/05/28 09:50:00;;;;;;;2.17;1.55;;;18.60;59.70;;;;;;6159466;23;20578;-82
2021/05/28 09:52:29;;;;;;;2.22;1.80;;;18.50;58.90;;;;;;6116153;23;20278;-84
2021/05/28 09:54:56;;;;;;;2.05;1.65;;;18.60;58.40;;;;;;6141306;23;20145;-83
2021/05/28 09:57:28;;;;;;;2.05;1.70;;;18.60;59.10;;;;;;6190011;23;20135;-82
2021/05/28 09:59:55;;;;;;;2.38;2.05;;;18.60;58.60;;;;;;6137292;23;20190;-82
2021/05/28 10:02:32;;;;;;;1.50;1.30;;;18.60;58.40;;;;;;6167303;23;20138;-83
2021/05/28 10:05:12;;;;;;;3.13;1.50;;;18.60;59.20;;;;;;6197317;23;20142;-83
2021/05/28 10:07:39;;;;;;;2.47;1.60;;;18.60;59.30;;;;;;6169041;23;20153;-83
2021/05/28 10:10:08;;;;;;;1.50;1.33;;;18.60;59.00;;;;;;6193428;23;20187;-81
2021/05/28 10:12:34;;;;;;;1.30;1.17;;;18.60;59.40;;;;;;6190121;23;20185;-84
2021/05/28 10:14:59;;;;;;;2.17;1.48;;;18.60;59.00;;;;;;6114860;23;20183;-84
2021/05/28 10:17:27;;;;;;;1.58;1.25;;;18.60;59.10;;;;;;6163397;23;20525;-83
2021/05/28 10:19:53;;;;;;;1.50;1.30;;;18.60;59.40;;;;;;6189880;23;20158;-82
2021/05/28 10:22:22;;;;;;;1.50;1.40;;;18.60;59.20;;;;;;6161874;23;20178;-83
2021/05/28 10:24:49;;;;;;;1.55;1.45;;;18.60;59.10;;;;;;6188421;23;20127;-85
2021/05/28 10:27:23;;;;;;;1.33;1.23;;;18.60;59.30;;;;;;6162127;23;20135;-84
2021/05/28 10:29:50;;;;;;;1.88;1.50;;;18.60;59.30;;;;;;6137874;23;20594;-83
2021/05/28 10:32:16;;;;;;;1.40;1.30;;;18.60;59.10;;;;;;6138273;23;20648;-81
2021/05/28 10:35:11;;;;;;;1.60;1.50;;;18.60;59.10;;;;;;6162929;23;20139;-81
2021/05/28 10:37:38;;;;;;;1.70;1.27;;;18.60;59.10;;;;;;6175425;23;20202;-81
2021/05/28 10:40:27;;;;;;;2.03;1.77;;;18.60;59.20;;;;;;6111577;23;20483;-82
2021/05/28 10:43:01;;;;;;;1.50;1.40;;;18.60;59.40;;;;;;6159905;23;20174;-82
2021/05/28 10:45:56;;;;;;;2.65;1.70;;;18.60;59.40;;;;;;6185847;23;20607;-80
2021/05/28 10:48:43;;;;;;;2.08;1.48;;;18.60;59.10;;;;;;6135021;23;20482;-80
2021/05/28 10:51:12;;;;;;;1.73;1.60;;;18.60;59.20;;;;;;6185900;23;20127;-83
2021/05/28 10:53:40;;;;;;;2.00;1.40;;;18.70;59.10;;;;;;6186697;23;20190;-81
2021/05/28 10:56:12;;;;;;;2.42;1.33;;;18.70;59.20;;;;;;6159628;23;20491;-82
2021/05/28 10:58:47;;;;;;;1.60;1.45;;;18.60;59.00;;;;;;6136626;23;20131;-85
2021/05/28 11:01:32;;;;;;;1.52;1.42;;;18.60;59.10;;;;;;6161718;23;20182;-82
2021/05/28 11:04:06;;;;;;;2.00;1.50;;;18.60;59.20;;;;;;6160745;23;20208;-83
2021/05/28 11:06:32;;;;;;;1.80;1.50;;;18.60;59.10;;;;;;6166366;23;20138;-81
2021/05/28 11:09:05;;;;;;;1.70;1.55;;;18.60;59.00;;;;;;6135445;23;20142;-83
2021/05/28 11:11:36;;;;;;;1.85;1.50;;;18.70;59.00;;;;;;6187188;23;20558;-80
2021/05/28 11:14:08;;;;;;;1.90;1.50;;;18.70;58.90;;;;;;6160178;23;20165;-80
2021/05/28 11:17:03;;;;;;;2.08;1.52;;;18.70;59.00;;;;;;6160518;23;20205;-81
2021/05/28 11:19:32;;;;;;;1.60;1.40;;;18.70;59.00;;;;;;6158474;23;20468;-82
2021/05/28 11:22:01;;;;;;;2.47;1.73;;;18.70;59.00;;;;;;6185918;23;20196;-81
2021/05/28 11:24:53;;;;;;;1.83;1.52;;;18.70;59.10;;;;;;6135480;23;20138;-79
2021/05/28 11:27:25;;;;;;;1.75;1.65;;;18.70;58.70;;;;;;6154091;23;20617;-82
2021/05/28 11:30:03;;;;;;;1.80;1.70;;;18.70;58.70;;;;;;6159645;23;20138;-81
2021/05/28 11:32:42;;;;;;;1.70;1.60;;;18.70;58.70;;;;;;6186341;23;20462;-79
2021/05/28 11:35:14;;;;;;;2.90;1.75;;;18.70;58.40;;;;;;6186026;23;20169;-79
2021/05/28 11:37:41;;;;;;;2.92;1.40;;;18.70;58.40;;;;;;6186859;23;20269;-80
2021/05/28 11:40:18;;;;;;;1.88;1.60;;;18.70;58.40;;;;;;6137037;23;20139;-81
2021/05/28 11:42:45;;;;;;;1.90;1.70;;;18.70;58.50;;;;;;6140009;23;20147;-84
2021/05/28 11:45:14;;;;;;;2.10;1.67;;;18.70;58.40;;;;;;6138782;23;20533;-83
2021/05/28 11:47:41;;;;;;;1.95;1.60;;;18.80;58.10;;;;;;6137312;23;20139;-81
2021/05/28 11:50:12;;;;;;;1.90;1.70;;;18.80;58.50;;;;;;6160032;23;20185;-83
2021/05/28 11:52:39;;;;;;;1.77;1.58;;;18.80;58.50;;;;;;6136085;23;20127;-83
2021/05/28 11:55:14;;;;;;;2.15;1.95;;;18.80;58.30;;;;;;6186032;23;20190;-82
2021/05/28 11:57:41;;;;;;;1.77;1.65;;;18.80;57.80;;;;;;6185344;23;20209;-83
2021/05/28 12:00:21;;;;;;;2.72;2.08;;;18.80;58.30;;;;;;6134962;23;20246;-82
2021/05/28 12:02:48;;;;;;;1.77;1.52;;;18.80;58.40;;;;;;6159810;23;20456;-80
2021/05/28 12:05:35;;;;;;;1.92;1.77;;;18.80;58.30;;;;;;6185806;23;20187;-81
2021/05/28 12:08:10;;;;;;;2.58;1.60;;;18.80;58.40;;;;;;6141758;23;20166;-84
2021/05/28 12:10:39;;;;;;;2.22;1.80;;;18.80;58.50;;;;;;6168466;23;20181;-83
2021/05/28 12:13:06;;;;;;;1.60;1.50;;;18.80;58.30;;;;;;6117728;23;20143;-83
2021/05/28 12:15:39;;;;;;;1.98;1.73;;;18.80;58.30;;;;;;6118210;23;20182;-81
2021/05/28 12:18:24;;;;;;;2.08;1.80;;;18.80;58.10;;;;;;6139633;23;20170;-81
2021/05/28 12:20:56;;;;;;;2.33;2.13;;;18.80;57.80;;;;;;6188431;23;20218;-82
2021/05/28 12:23:26;;;;;;;2.40;1.77;;;18.80;57.70;;;;;;6187267;23;20193;-81
2021/05/28 12:25:53;;;;;;;1.90;1.70;;;18.80;58.30;;;;;;6111957;23;20157;-81
2021/05/28 12:28:22;;;;;;;2.40;1.90;;;18.80;57.90;;;;;;6161544;23;20139;-83
2021/05/28 12:30:51;;;;;;;2.22;1.80;;;18.80;57.60;;;;;;6166130;23;20142;-82
2021/05/28 12:33:30;;;;;;;2.65;1.98;;;18.80;58.20;;;;;;6148161;23;20664;-82
2021/05/28 12:35:59;;;;;;;2.30;1.92;;;18.80;58.00;;;;;;6176478;23;20194;-83
2021/05/28 12:38:35;;;;;;;2.78;1.70;;;18.80;57.80;;;;;;6176955;23;20198;-83
2021/05/28 12:41:09;;;;;;;2.67;1.80;;;18.90;58.00;;;;;;6180150;23;20138;-84
2021/05/28 12:43:41;;;;;;;1.70;1.60;;;18.80;58.20;;;;;;6157538;23;20150;-84
2021/05/28 12:46:37;;;;;;;2.00;1.80;;;18.80;58.20;;;;;;6133289;23;20153;-84
2021/05/28 12:49:29;;;;;;;2.78;1.70;;;18.80;58.40;;;;;;6177571;23;20154;-84
2021/05/28 12:52:17;;;;;;;1.90;1.60;;;18.80;58.10;;;;;;6152057;23;20237;-84
2021/05/28 12:55:05;;;;;;;1.90;1.60;;;18.80;58.20;;;;;;6152634;23;20150;-84
2021/05/28 12:57:53;;;;;;;2.22;2.03;;;18.90;57.60;;;;;;6173801;23;20163;-84
2021/05/28 13:00:39;;;;;;;2.53;2.17;;;18.90;57.60;;;;;;6155149;23;20154;-84
2021/05/28 13:03:35;;;;;;;1.55;1.42;;;19.00;57.80;;;;;;6155758;23;20171;-85